createdAt,value
2022-10-13T00:00:01.723Z,10.52
2022-10-13T00:07:02.155Z,10.58
2022-10-13T00:14:02.064Z,10.54
2022-10-13T00:21:01.604Z,10.54
2022-10-13T00:28:02.141Z,10.5
2022-10-13T00:35:02.049Z,10.49
2022-10-13T00:42:01.690Z,10.5
2022-10-13T00:49:02.226Z,10.5
2022-10-13T00:56:01.358Z,10.5
2022-10-13T01:00:01.937Z,10.61
2022-10-13T01:07:01.526Z,10.61
2022-10-13T01:14:02.086Z,10.62
2022-10-13T01:21:01.812Z,10.52
2022-10-13T01:28:01.594Z,10.52
2022-10-13T01:35:01.795Z,10.52
2022-10-13T01:42:01.792Z,10.52
2022-10-13T01:49:01.482Z,10.52
2022-10-13T02:00:02.703Z,10.57
2022-10-13T02:07:01.529Z,10.57
2022-10-13T02:14:01.552Z,10.6
2022-10-13T02:21:01.687Z,10.6
2022-10-13T02:28:01.669Z,10.75
2022-10-13T02:35:02.554Z,10.75
2022-10-13T02:42:01.370Z,10.71
2022-10-13T02:49:01.635Z,10.8
2022-10-13T02:56:02.293Z,10.85
2022-10-13T03:00:01.856Z,10.85
2022-10-13T03:07:02.050Z,10.88
2022-10-13T03:14:01.548Z,10.88
2022-10-13T03:21:01.464Z,10.89
2022-10-13T03:28:01.674Z,10.91
2022-10-13T03:35:01.944Z,10.93
2022-10-13T03:42:02.208Z,10.93
2022-10-13T03:49:01.815Z,10.93
2022-10-13T03:56:02.184Z,10.93
2022-10-13T04:00:01.711Z,10.93
2022-10-13T08:56:01.575Z,11.88
2022-10-13T09:00:02.249Z,11.88
2022-10-13T09:07:01.863Z,11.95
2022-10-13T09:14:02.227Z,11.94
2022-10-13T09:21:02.262Z,11.94
2022-10-13T09:28:01.823Z,11.94
2022-10-13T09:35:02.315Z,12.16
2022-10-13T09:42:01.894Z,12.18
2022-10-13T09:49:01.458Z,12.18
2022-10-13T09:56:01.403Z,12.33
2022-10-13T10:07:02.475Z,12.45
2022-10-13T10:14:01.968Z,12.56
2022-10-13T10:21:02.043Z,12.56
2022-10-13T10:28:01.865Z,12.56
2022-10-13T10:35:02.012Z,12.68
2022-10-13T10:42:01.910Z,12.78
2022-10-13T10:49:01.335Z,12.95
2022-10-13T10:56:02.103Z,12.95
2022-10-13T11:00:01.646Z,13.17
2022-10-13T11:07:01.756Z,13.17
2022-10-13T11:14:01.655Z,13.31
2022-10-13T11:21:01.537Z,13.31
2022-10-13T11:28:02.310Z,13.51
2022-10-13T11:35:01.606Z,13.51
2022-10-13T11:42:02.440Z,13.52
2022-10-13T11:49:02.076Z,13.52
2022-10-13T11:56:02.033Z,13.52
2022-10-13T12:00:01.610Z,13.64
2022-10-13T12:07:02.015Z,13.66
2022-10-13T12:14:02.095Z,13.66
2022-10-13T12:21:02.205Z,13.72
2022-10-13T12:28:01.650Z,13.72
2022-10-13T12:35:02.564Z,13.72
2022-10-13T12:42:01.711Z,13.75
2022-10-13T12:49:02.099Z,13.69
2022-10-13T12:56:01.667Z,13.73
2022-10-13T13:00:02.304Z,13.73
2022-10-13T13:07:02.243Z,13.81
2022-10-13T13:14:02.061Z,13.81
2022-10-13T13:21:02.291Z,13.81
2022-10-13T13:28:01.461Z,13.71
2022-10-13T13:35:02.195Z,13.87
2022-10-13T13:42:01.490Z,13.87
2022-10-13T13:49:01.669Z,13.88
2022-10-13T13:56:01.844Z,13.95
2022-10-13T14:00:02.591Z,13.95
2022-10-13T14:07:01.936Z,13.97
2022-10-13T14:14:01.640Z,13.87
2022-10-13T14:21:01.767Z,13.87
2022-10-13T14:28:02.265Z,13.87
2022-10-13T14:35:01.508Z,13.93
2022-10-13T14:42:01.541Z,13.85
2022-10-13T14:49:01.359Z,13.85
2022-10-13T14:56:01.726Z,13.89
2022-10-13T15:00:02.530Z,13.89
2022-10-13T15:07:01.873Z,13.9
2022-10-13T15:14:02.087Z,13.9
2022-10-13T15:21:01.766Z,13.84
2022-10-13T15:28:01.582Z,13.84
2022-10-13T15:35:01.770Z,13.9
2022-10-13T15:42:01.461Z,13.94
2022-10-13T15:49:01.779Z,13.94
2022-10-13T15:56:02.308Z,13.94
2022-10-13T16:00:01.868Z,13.87
2022-10-13T16:07:01.923Z,13.87
2022-10-13T16:14:01.886Z,13.93
2022-10-13T16:21:01.641Z,13.91
2022-10-13T16:28:02.016Z,13.9
2022-10-13T16:35:02.415Z,13.9
2022-10-13T16:42:01.971Z,13.88
2022-10-13T16:49:01.992Z,13.88
2022-10-13T16:56:01.737Z,13.88
2022-10-13T17:00:02.391Z,13.86
2022-10-13T17:07:02.185Z,13.79
2022-10-13T17:14:02.292Z,13.79
2022-10-13T17:21:01.606Z,13.79
2022-10-13T17:28:02.313Z,13.78
2022-10-13T17:35:02.565Z,13.75
2022-10-13T17:42:02.260Z,13.75
2022-10-13T17:49:01.919Z,13.71
2022-10-13T17:56:01.611Z,13.69
2022-10-13T18:00:02.149Z,13.69
2022-10-13T18:07:02.253Z,13.64
2022-10-13T18:14:01.625Z,13.63
2022-10-13T18:21:01.878Z,13.63
2022-10-13T18:28:01.752Z,13.54
2022-10-13T18:35:01.891Z,13.52
2022-10-13T18:42:01.772Z,13.52
2022-10-13T18:49:02.150Z,13.54
2022-10-13T18:56:01.467Z,13.41
2022-10-13T19:00:02.045Z,13.41
2022-10-13T19:07:01.402Z,13.46
2022-10-13T19:14:01.972Z,13.51
2022-10-13T19:21:01.686Z,13.47
2022-10-13T19:28:01.518Z,13.47
2022-10-13T19:35:01.731Z,13.42
2022-10-13T19:42:01.516Z,13.45
2022-10-13T19:49:01.611Z,13.45
2022-10-13T19:56:01.681Z,13.45
2022-10-13T20:00:02.355Z,13.3
2022-10-13T20:07:01.549Z,13.3
2022-10-13T20:14:01.645Z,13.33
2022-10-13T20:21:01.652Z,13.29
2022-10-13T20:28:01.921Z,13.29
2022-10-13T20:35:01.914Z,13.23
2022-10-13T20:42:02.096Z,13.16
2022-10-13T20:49:12.939Z,13.17
2022-10-13T20:56:01.759Z,13.17
2022-10-13T21:00:02.610Z,13.17
2022-10-13T21:07:02.037Z,13.17
2022-10-13T21:14:02.238Z,13.09
2022-10-13T21:21:02.196Z,12.94
2022-10-13T21:28:02.048Z,13.06
2022-10-13T21:35:02.078Z,13.06
2022-10-13T21:42:01.987Z,13.04
2022-10-13T21:49:02.326Z,12.85
2022-10-13T21:56:01.363Z,12.85
2022-10-13T22:00:01.943Z,12.85
2022-10-13T22:07:02.289Z,13
2022-10-13T22:14:01.853Z,13
2022-10-13T22:21:02.132Z,13.01
2022-10-13T22:28:01.591Z,12.96
2022-10-13T22:35:01.797Z,12.96
2022-10-13T22:42:01.921Z,12.96
2022-10-13T22:49:01.556Z,13
2022-10-13T22:56:01.496Z,12.97
2022-10-13T23:00:02.131Z,12.97
2022-10-13T23:07:02.016Z,13.01
2022-10-13T23:14:01.442Z,12.81
2022-10-13T23:21:02.313Z,12.81
2022-10-13T23:28:02.288Z,13.03
2022-10-13T23:35:02.007Z,13
2022-10-13T23:42:02.219Z,12.95
2022-10-13T23:49:01.842Z,12.95
2022-10-13T23:56:02.154Z,13.02
